Time;durP1;ratioP1;P1;durP2;ratioP2;P2;SDS_P1;SDS_P2;PMS_P1;PMS_P2;Temp;Humidity;BMP_temperature;BMP_pressure;BME280_temperature;BME280_humidity;BME280_pressure;Samples;Min_cycle;Max_cycle;Signal;HPM_P1;HPM_P2
2022/11/05 00:09:28;;;;;;;19.50;12.40;;;;;;;11.98;84.98;100678.17;106942;1272;60186;-72
2022/11/05 00:10:06;;;;;;;22.30;12.50;;;;;;;12.06;86.24;100674.02;107032;1275;71293;-72
2022/11/05 00:18:10;;;;;;;21.80;13.20;;;;;;;12.14;85.47;100680.89;107088;1275;57843;-72
2022/11/05 00:20:39;;;;;;;20.60;13.00;;;;;;;12.15;85.47;100681.88;106878;1270;60099;-70
2022/11/05 00:26:01;;;;;;;18.10;12.00;;;;;;;12.14;85.45;100682.27;107206;1266;61607;-71
2022/11/05 00:28:31;;;;;;;25.30;13.10;;;;;;;12.15;85.21;100686.05;107076;1279;69593;-72
2022/11/05 00:31:20;;;;;;;19.60;12.50;;;;;;;12.12;85.17;100683.16;107088;1276;62284;-72
2022/11/05 00:33:49;;;;;;;18.90;12.00;;;;;;;12.09;85.03;100680.23;107156;1269;58183;-72
2022/11/05 00:36:17;;;;;;;19.30;11.70;;;;;;;12.08;84.98;100679.77;107129;1273;61265;-73
2022/11/05 00:38:46;;;;;;;19.40;11.60;;;;;;;12.07;84.90;100684.40;107123;1275;74976;-72
2022/11/05 00:41:15;;;;;;;19.70;12.40;;;;;;;12.06;84.90;100685.20;107207;1274;61254;-73
2022/11/05 00:46:31;;;;;;;16.80;11.50;;;;;;;12.06;84.72;100678.60;107062;1279;63152;-73
2022/11/05 00:51:46;;;;;;;19.10;11.80;;;;;;;12.03;84.98;100675.28;106999;1270;60898;-72
2022/11/05 00:54:15;;;;;;;22.50;11.80;;;;;;;12.03;84.97;100678.67;107015;1272;64158;-70
2022/11/05 00:56:44;;;;;;;16.30;11.30;;;;;;;12.01;84.95;100676.33;107061;1268;71504;-70
2022/11/05 00:59:12;;;;;;;15.90;10.90;;;;;;;12.00;85.04;100671.16;107020;1265;69893;-71
2022/11/05 01:01:41;;;;;;;16.90;11.70;;;;;;;11.98;84.77;100668.21;107039;1270;62786;-70
2022/11/05 01:04:10;;;;;;;26.60;12.50;;;;;;;11.90;85.60;100666.54;106991;1279;62975;-72
2022/11/05 01:06:38;;;;;;;19.80;11.20;;;;;;;11.91;85.61;100669.94;107042;1275;58280;-72
2022/11/05 01:09:07;;;;;;;17.20;11.80;;;;;;;11.89;85.96;100668.20;107026;1265;73157;-72
2022/11/05 01:11:35;;;;;;;15.10;10.10;;;;;;;11.89;85.85;100661.78;107116;1270;71598;-74
2022/11/05 01:14:17;;;;;;;20.40;11.30;;;;;;;11.90;85.84;100662.56;107022;1269;61511;-74
2022/11/05 01:16:45;;;;;;;17.60;11.60;;;;;;;11.84;86.75;100666.83;106930;1269;64894;-73
2022/11/05 01:19:14;;;;;;;18.70;12.30;;;;;;;11.84;86.89;100672.98;107150;1272;57716;-73
2022/11/05 01:21:43;;;;;;;20.20;12.40;;;;;;;11.84;87.09;100664.61;107114;1279;60386;-72
2022/11/05 01:24:11;;;;;;;16.30;11.30;;;;;;;11.87;86.81;100666.80;107056;1275;64683;-73
2022/11/05 01:26:40;;;;;;;19.60;11.20;;;;;;;11.87;86.79;100668.76;107190;1266;60715;-73
2022/11/05 01:29:10;;;;;;;18.80;11.60;;;;;;;11.85;86.64;100668.03;107068;1275;69932;-73
2022/11/05 01:31:38;;;;;;;18.00;11.00;;;;;;;11.89;86.26;100663.00;106985;1282;63583;-74
2022/11/05 01:34:07;;;;;;;20.80;11.70;;;;;;;11.86;86.22;100659.20;107065;1270;57711;-73
2022/11/05 01:36:35;;;;;;;17.90;11.80;;;;;;;11.88;86.06;100662.02;107114;1278;60289;-74
2022/11/05 01:39:04;;;;;;;18.40;11.70;;;;;;;11.84;86.66;100667.14;107070;1270;64310;-73
2022/11/05 01:41:33;;;;;;;18.80;11.60;;;;;;;11.85;86.66;100669.02;107201;1266;61813;-72
2022/11/05 01:44:02;;;;;;;22.40;11.40;;;;;;;11.83;86.95;100669.16;107073;1272;70512;-72
2022/11/05 01:46:37;;;;;;;18.30;11.20;;;;;;;11.89;86.91;100673.02;106999;1282;73943;-73
2022/11/05 01:49:27;;;;;;;17.50;11.00;;;;;;;11.93;86.46;100670.88;107048;1276;61689;-73
2022/11/05 01:51:58;;;;;;;20.40;11.30;;;;;;;11.93;86.62;100666.65;106880;1280;61852;-73
2022/11/05 01:54:31;;;;;;;17.80;11.50;;;;;;;11.89;86.83;100667.49;106897;1282;62920;-73
2022/11/05 01:57:06;;;;;;;18.80;12.10;;;;;;;11.92;86.70;100669.94;106900;1270;71454;-73
2022/11/05 01:59:44;;;;;;;19.00;11.20;;;;;;;11.88;86.82;100672.11;106923;1282;59518;-73
2022/11/05 02:02:13;;;;;;;19.20;11.60;;;;;;;11.88;86.75;100668.40;106916;1279;63131;-73
2022/11/05 02:04:57;;;;;;;18.90;12.20;;;;;;;11.86;86.74;100668.94;106987;1280;57744;-71
2022/11/05 02:07:27;;;;;;;18.10;11.80;;;;;;;11.83;86.69;100671.48;107008;1273;58184;-74
2022/11/05 02:10:08;;;;;;;17.00;11.30;;;;;;;11.80;86.86;100673.39;106838;1281;62914;-73
2022/11/05 02:12:41;;;;;;;17.80;11.70;;;;;;;11.82;86.85;100677.42;107164;1272;61500;-73
2022/11/05 02:15:12;;;;;;;17.70;11.80;;;;;;;11.85;86.70;100680.74;107069;1279;59076;-72
2022/11/05 02:18:05;;;;;;;21.90;12.10;;;;;;;11.86;86.70;100677.52;107086;1276;62311;-71
2022/11/05 02:20:48;;;;;;;19.00;11.90;;;;;;;11.84;87.07;100681.48;107098;1275;61907;-72
2022/11/05 02:23:50;;;;;;;17.80;10.70;;;;;;;11.84;86.93;100682.36;107109;1271;59916;-72
2022/11/05 02:26:55;;;;;;;19.80;11.50;;;;;;;11.89;86.66;100683.57;107093;1275;73959;-72
2022/11/05 02:29:55;;;;;;;20.40;11.60;;;;;;;11.88;86.36;100681.52;107167;1272;60937;-75
2022/11/05 02:32:55;;;;;;;19.20;11.50;;;;;;;11.88;86.45;100686.59;107083;1275;70309;-75
2022/11/05 02:35:35;;;;;;;19.80;11.90;;;;;;;11.88;86.42;100682.20;107125;1275;73602;-73
2022/11/05 02:38:41;;;;;;;18.60;11.10;;;;;;;11.96;85.79;100686.50;107136;1266;57744;-73
2022/11/05 02:41:46;;;;;;;18.20;11.00;;;;;;;11.95;85.84;100690.45;107086;1280;57754;-74
2022/11/05 02:44:40;;;;;;;17.80;11.50;;;;;;;11.86;86.26;100689.77;107077;1282;62855;-75
2022/11/05 02:47:49;;;;;;;17.40;11.10;;;;;;;11.83;86.47;100689.79;107185;1273;71342;-75
2022/11/05 02:50:21;;;;;;;17.70;11.20;;;;;;;11.91;86.01;100687.41;107101;1275;70372;-72
2022/11/05 02:52:57;;;;;;;18.70;11.80;;;;;;;11.90;85.94;100692.23;107046;1272;72550;-72
2022/11/05 02:55:33;;;;;;;15.30;10.40;;;;;;;11.90;85.94;100692.22;107084;1272;61939;-73
2022/11/05 02:58:04;;;;;;;20.10;12.00;;;;;;;11.91;85.92;100693.69;107087;1279;57691;-72
2022/11/05 03:00:59;;;;;;;16.70;10.90;;;;;;;11.95;85.78;100689.87;107055;1272;63554;-72
2022/11/05 03:03:39;;;;;;;20.70;11.00;;;;;;;11.97;85.60;100690.43;107076;1271;72123;-73
2022/11/05 03:06:34;;;;;;;18.10;10.90;;;;;;;11.97;85.66;100693.07;107118;1275;70592;-73
2022/11/05 03:09:24;;;;;;;19.10;10.90;;;;;;;11.94;85.80;100692.95;107146;1271;63636;-74
2022/11/05 03:12:09;;;;;;;15.10;11.00;;;;;;;12.00;85.24;100695.86;107086;1275;62794;-72
2022/11/05 03:15:20;;;;;;;18.80;11.10;;;;;;;11.94;85.73;100690.65;107103;1271;61271;-72
2022/11/05 03:18:10;;;;;;;19.30;10.70;;;;;;;11.95;85.91;100689.92;107082;1275;62674;-74
2022/11/05 03:20:45;;;;;;;20.40;11.40;;;;;;;11.97;85.89;100687.14;107163;1267;72165;-73
2022/11/05 03:23:41;;;;;;;19.90;10.20;;;;;;;12.00;85.41;100685.69;107005;1275;70102;-73
2022/11/05 03:26:34;;;;;;;19.10;12.10;;;;;;;11.90;86.21;100684.67;106989;1276;73363;-73
2022/11/05 03:29:18;;;;;;;19.10;11.20;;;;;;;11.87;86.34;100692.24;107032;1281;58228;-71
2022/11/05 03:31:49;;;;;;;20.50;11.70;;;;;;;11.93;86.17;100694.25;107066;1275;61238;-74
2022/11/05 03:34:23;;;;;;;17.30;11.10;;;;;;;11.91;86.24;100696.30;107020;1275;74672;-73
2022/11/05 03:36:56;;;;;;;20.40;11.10;;;;;;;11.93;86.21;100693.69;107104;1273;60533;-73
2022/11/05 03:39:34;;;;;;;19.80;11.80;;;;;;;11.98;85.89;100689.48;107014;1273;68764;-73
2022/11/05 03:42:07;;;;;;;20.80;12.40;;;;;;;11.96;85.82;100699.42;107025;1272;73858;-73
2022/11/05 03:44:37;;;;;;;;;;;;;;;11.91;86.36;100696.67;107076;1271;61824;-72
2022/11/05 03:47:14;;;;;;;21.20;12.30;;;;;;;11.98;85.93;100692.96;106927;1270;58327;-72
2022/11/05 03:50:03;;;;;;;19.90;11.70;;;;;;;11.93;85.82;100689.00;107068;1275;73713;-72
2022/11/05 03:52:42;;;;;;;21.50;12.60;;;;;;;11.93;85.87;100688.14;107124;1282;61256;-72
2022/11/05 03:55:11;;;;;;;19.30;13.80;;;;;;;11.88;86.13;100691.64;107015;1276;59142;-73
2022/11/05 03:57:46;;;;;;;22.30;12.00;;;;;;;11.85;86.38;100696.48;107060;1278;63211;-72
2022/11/05 04:00:15;;;;;;;19.50;12.10;;;;;;;11.87;86.27;100699.77;107032;1276;58361;-73
2022/11/05 04:02:44;;;;;;;22.70;12.70;;;;;;;11.91;86.04;100702.75;107144;1276;57731;-73
2022/11/05 04:05:13;;;;;;;17.80;12.30;;;;;;;11.83;86.47;100702.55;107134;1282;62918;-72
2022/11/05 04:13:23;;;;;;;24.60;12.20;;;;;;;11.80;86.75;100712.18;107112;1269;64726;-73
2022/11/05 04:18:42;;;;;;;25.30;12.90;;;;;;;11.82;86.85;100715.17;106936;1278;58234;-71
2022/11/05 04:24:10;;;;;;;21.60;12.50;;;;;;;11.87;86.38;100717.75;107125;1272;60724;-72
2022/11/05 04:26:42;;;;;;;22.10;13.10;;;;;;;11.83;86.58;100715.74;107071;1271;60021;-73
2022/11/05 04:31:58;;;;;;;24.40;12.90;;;;;;;11.89;86.38;100717.02;107112;1272;62551;-78
2022/11/05 04:34:26;;;;;;;21.20;13.20;;;;;;;11.94;86.11;100717.52;106990;1277;57737;-75
2022/11/05 04:36:55;;;;;;;23.40;12.70;;;;;;;11.89;86.59;100714.94;107149;1276;64218;-73
2022/11/05 04:39:23;;;;;;;25.50;13.40;;;;;;;11.92;86.23;100716.60;107211;1273;72115;-73
2022/11/05 04:41:52;;;;;;;28.30;13.60;;;;;;;11.91;86.41;100712.92;107128;1270;59644;-71
2022/11/05 04:44:21;;;;;;;24.30;12.60;;;;;;;11.95;86.35;100704.76;107103;1272;72925;-74
2022/11/05 04:46:49;;;;;;;20.40;12.80;;;;;;;11.92;86.47;100706.49;107094;1271;57773;-74
2022/11/05 04:49:18;;;;;;;21.80;13.00;;;;;;;11.94;86.62;100707.45;107099;1275;58270;-75
2022/11/05 04:51:46;;;;;;;20.00;12.50;;;;;;;12.02;86.10;100709.80;107084;1270;72976;-73
2022/11/05 04:54:15;;;;;;;22.30;12.30;;;;;;;12.02;86.10;100711.76;107177;1280;61484;-73
2022/11/05 04:56:44;;;;;;;22.20;12.50;;;;;;;12.04;85.90;100713.41;107109;1268;70463;-72
2022/11/05 04:59:12;;;;;;;21.90;11.60;;;;;;;12.07;85.55;100718.83;107098;1272;64700;-73
2022/11/05 05:01:41;;;;;;;22.70;13.70;;;;;;;12.03;85.96;100719.99;107016;1275;58186;-73
2022/11/05 05:04:10;;;;;;;21.70;13.20;;;;;;;11.95;86.78;100719.55;107088;1279;61219;-74
2022/11/05 05:06:38;;;;;;;20.70;13.60;;;;;;;11.99;86.61;100722.41;107026;1273;73345;-72
2022/11/05 05:09:07;;;;;;;20.30;13.50;;;;;;;12.01;86.72;100724.21;107190;1270;61187;-72
2022/11/05 05:11:35;;;;;;;20.50;12.40;;;;;;;12.06;86.51;100722.05;107079;1278;69761;-73
2022/11/05 05:14:04;;;;;;;22.90;13.10;;;;;;;12.03;86.97;100723.54;107050;1275;62811;-80
2022/11/05 05:16:33;;;;;;;22.00;12.60;;;;;;;12.01;87.07;100723.80;107110;1272;57727;-73
2022/11/05 05:19:01;;;;;;;22.90;13.90;;;;;;;12.06;86.46;100722.21;107084;1272;60470;-73
2022/11/05 05:21:39;;;;;;;19.70;12.70;;;;;;;12.01;86.92;100725.23;107106;1279;62660;-72
2022/11/05 05:24:18;;;;;;;25.50;13.40;;;;;;;12.04;86.81;100727.95;107187;1267;61737;-72
2022/11/05 05:26:49;;;;;;;24.30;13.30;;;;;;;12.07;86.60;100730.39;107175;1267;71194;-72
2022/11/05 05:29:17;;;;;;;20.00;13.70;;;;;;;12.04;86.87;100734.39;106947;1268;63373;-73
2022/11/05 05:31:46;;;;;;;18.90;12.40;;;;;;;12.05;86.80;100737.64;107030;1278;57815;-72
2022/11/05 05:34:14;;;;;;;29.20;14.60;;;;;;;12.05;86.80;100740.42;107097;1275;61303;-74
2022/11/05 05:36:43;;;;;;;24.50;14.50;;;;;;;12.02;87.13;100745.25;107045;1274;63494;-72
2022/11/05 05:39:14;;;;;;;22.50;13.80;;;;;;;12.07;86.86;100749.69;107153;1276;60727;-72
2022/11/05 05:41:43;;;;;;;24.10;14.00;;;;;;;12.11;86.70;100755.30;107008;1279;58950;-74
2022/11/05 05:44:11;;;;;;;25.30;13.90;;;;;;;12.14;86.54;100762.26;107047;1275;73064;-76
2022/11/05 05:46:40;;;;;;;25.60;14.20;;;;;;;12.17;86.33;100761.52;107055;1271;58213;-74
2022/11/05 05:49:10;;;;;;;24.10;14.10;;;;;;;12.18;86.34;100760.36;106990;1272;61254;-74
2022/11/05 05:51:40;;;;;;;23.40;14.40;;;;;;;12.23;86.10;100762.61;107049;1273;74380;-77
2022/11/05 05:54:10;;;;;;;24.30;13.20;;;;;;;12.25;86.00;100761.20;107206;1272;72555;-73
2022/11/05 05:56:39;;;;;;;23.70;13.90;;;;;;;12.32;86.00;100760.33;107074;1276;69749;-69
2022/11/05 05:59:07;;;;;;;24.90;15.00;;;;;;;12.33;85.90;100766.83;107117;1275;73574;-71
2022/11/05 06:01:36;;;;;;;25.10;13.80;;;;;;;12.41;85.81;100777.62;107108;1271;58164;-72
2022/11/05 06:04:05;;;;;;;25.80;13.70;;;;;;;12.47;85.47;100784.43;106927;1275;57764;-72
2022/11/05 06:06:34;;;;;;;24.00;14.10;;;;;;;12.49;85.30;100789.35;107105;1270;63795;-73
2022/11/05 06:09:03;;;;;;;24.70;13.60;;;;;;;12.52;84.94;100797.16;107137;1270;71445;-72
2022/11/05 06:11:31;;;;;;;27.10;15.30;;;;;;;12.57;84.63;100798.17;107127;1276;59953;-72
2022/11/05 06:14:01;;;;;;;27.20;15.20;;;;;;;12.61;84.42;100803.63;107045;1275;62419;-72
2022/11/05 06:16:34;;;;;;;19.40;13.60;;;;;;;12.65;84.26;100810.98;107117;1270;58200;-72
2022/11/05 06:19:04;;;;;;;23.80;14.70;;;;;;;12.69;84.04;100813.98;107109;1275;58498;-72
2022/11/05 06:21:33;;;;;;;23.10;14.70;;;;;;;12.65;84.12;100818.81;107118;1282;73823;-76
2022/11/05 06:24:02;;;;;;;25.00;14.30;;;;;;;12.70;83.95;100822.84;107151;1273;72417;-75
2022/11/05 06:26:31;;;;;;;25.50;15.20;;;;;;;12.72;84.04;100820.05;106971;1278;59707;-75
2022/11/05 06:29:00;;;;;;;26.90;15.60;;;;;;;12.70;84.15;100814.09;107049;1271;73851;-77
2022/11/05 06:31:28;;;;;;;22.10;14.20;;;;;;;12.73;84.36;100812.93;107142;1272;58227;-73
2022/11/05 06:33:57;;;;;;;28.90;15.30;;;;;;;12.76;84.38;100816.36;107156;1271;58164;-75
2022/11/05 06:36:25;;;;;;;25.30;15.20;;;;;;;12.85;83.97;100816.90;107142;1271;74000;-71
2022/11/05 06:38:54;;;;;;;25.60;14.90;;;;;;;12.88;83.86;100820.32;107236;1270;61003;-73
2022/11/05 06:41:23;;;;;;;29.90;15.80;;;;;;;12.87;84.15;100813.08;107134;1272;59244;-72
2022/11/05 06:43:51;;;;;;;30.70;15.30;;;;;;;12.91;84.35;100820.91;107136;1276;73851;-72
2022/11/05 06:46:20;;;;;;;23.90;14.30;;;;;;;12.94;84.19;100826.80;107098;1275;57741;-72
2022/11/05 06:48:49;;;;;;;23.80;15.00;;;;;;;13.08;83.39;100835.84;107061;1275;61130;-76
2022/11/05 06:51:18;;;;;;;26.00;15.60;;;;;;;13.02;83.88;100837.73;107061;1276;62643;-73
2022/11/05 06:53:47;;;;;;;30.10;15.60;;;;;;;13.04;83.98;100839.52;107186;1267;61602;-73
2022/11/05 06:56:16;;;;;;;24.10;15.60;;;;;;;13.14;83.76;100840.61;107049;1276;69772;-72
2022/11/05 06:58:44;;;;;;;25.90;15.00;;;;;;;13.28;83.45;100846.30;107141;1275;73968;-72
2022/11/05 07:01:13;;;;;;;25.90;16.00;;;;;;;13.22;83.50;100846.77;107129;1274;57796;-72
2022/11/05 07:03:43;;;;;;;25.50;15.50;;;;;;;13.28;83.25;100850.70;107097;1276;58071;-72
2022/11/05 07:06:12;;;;;;;22.60;14.90;;;;;;;13.33;82.97;100848.15;107107;1272;63777;-72
2022/11/05 07:08:41;;;;;;;25.90;15.50;;;;;;;13.42;82.65;100845.66;107232;1270;60843;-73
2022/11/05 07:11:10;;;;;;;29.10;15.50;;;;;;;13.49;83.04;100847.22;107201;1271;71092;-72
2022/11/05 07:13:39;;;;;;;25.00;14.70;;;;;;;13.61;81.82;100845.68;107116;1271;74216;-74
2022/11/05 07:16:08;;;;;;;28.50;15.20;;;;;;;13.71;81.49;100842.92;106839;1278;62951;-75
2022/11/05 07:18:36;;;;;;;22.20;15.90;;;;;;;13.74;81.62;100842.89;107050;1275;60686;-72
2022/11/05 07:21:05;;;;;;;28.90;15.20;;;;;;;13.75;81.73;100845.41;107077;1275;63845;-71
2022/11/05 07:23:34;;;;;;;27.80;14.70;;;;;;;13.84;81.52;100852.21;107136;1266;61624;-73
2022/11/05 07:26:03;;;;;;;28.60;15.30;;;;;;;13.84;81.68;100848.01;106663;1276;443427;-71
2022/11/05 07:28:32;;;;;;;25.20;15.40;;;;;;;13.77;82.14;100850.98;106942;1278;70960;-70
2022/11/05 07:31:01;;;;;;;27.10;14.40;;;;;;;13.77;82.31;100850.50;106975;1275;62055;-73
2022/11/05 07:33:30;;;;;;;28.40;15.70;;;;;;;13.80;82.41;100855.51;106922;1279;60244;-72
2022/11/05 07:36:04;;;;;;;28.10;15.80;;;;;;;13.90;81.95;100853.06;107054;1272;72364;-73
2022/11/05 07:38:33;;;;;;;28.00;15.90;;;;;;;13.85;81.93;100848.79;107175;1271;63326;-73
2022/11/05 07:41:03;;;;;;;25.10;14.00;;;;;;;13.86;82.07;100847.80;107079;1276;59586;-74
2022/11/05 07:43:32;;;;;;;27.50;14.90;;;;;;;13.83;82.45;100848.92;107177;1279;73885;-72
2022/11/05 07:46:00;;;;;;;35.20;16.80;;;;;;;13.93;82.14;100849.17;107076;1275;57803;-75
2022/11/05 07:48:29;;;;;;;25.70;14.70;;;;;;;14.00;81.87;100847.14;107089;1273;58256;-73
2022/11/05 07:50:58;;;;;;;25.20;15.30;;;;;;;14.10;81.57;100846.48;107052;1271;63055;-73
2022/11/05 07:53:27;;;;;;;23.50;14.60;;;;;;;14.15;81.20;100849.91;107158;1270;72263;-72
2022/11/05 07:55:57;;;;;;;27.00;14.70;;;;;;;14.04;81.63;100854.14;107004;1271;70088;-73
2022/11/05 07:58:26;;;;;;;30.60;14.30;;;;;;;14.03;81.69;100851.21;106990;1273;72555;-72
2022/11/05 08:00:56;;;;;;;26.20;14.80;;;;;;;14.13;81.35;100852.35;107060;1275;58163;-73
2022/11/05 08:03:25;;;;;;;27.40;15.70;;;;;;;14.10;81.43;100849.63;106899;1276;57738;-73
2022/11/05 08:05:54;;;;;;;25.80;15.00;;;;;;;14.17;81.27;100845.48;107063;1276;63766;-73
2022/11/05 08:08:23;;;;;;;27.20;14.40;;;;;;;14.22;81.05;100835.95;107207;1270;62513;-76
2022/11/05 08:10:52;;;;;;;28.00;15.50;;;;;;;14.29;80.76;100838.88;107044;1278;60119;-74
2022/11/05 08:13:21;;;;;;;26.40;15.50;;;;;;;14.26;80.77;100836.19;107021;1275;63302;-74
2022/11/05 08:15:50;;;;;;;27.60;15.30;;;;;;;14.21;81.04;100837.85;107042;1276;61999;-74
2022/11/05 08:18:18;;;;;;;26.60;14.20;;;;;;;14.30;80.69;100836.32;106975;1282;60628;-75
2022/11/05 08:20:47;;;;;;;26.40;14.70;;;;;;;14.27;80.54;100840.09;107042;1268;63632;-74
2022/11/05 08:23:16;;;;;;;25.80;14.70;;;;;;;14.31;80.37;100839.59;107177;1270;61687;-77
2022/11/05 08:25:45;;;;;;;25.80;13.20;;;;;;;14.38;80.12;100839.00;107021;1275;59261;-77
2022/11/05 08:28:14;;;;;;;25.40;15.10;;;;;;;14.39;79.93;100837.73;107076;1282;73929;-75
2022/11/05 08:30:42;;;;;;;24.90;14.10;;;;;;;14.44;80.03;100842.52;106971;1282;57815;-75
2022/11/05 08:33:13;;;;;;;29.40;15.50;;;;;;;14.50;79.72;100846.60;106848;1282;57792;-74
2022/11/05 08:35:42;;;;;;;25.40;14.50;;;;;;;14.46;79.57;100843.39;106900;1276;62795;-74
2022/11/05 08:38:13;;;;;;;21.50;12.80;;;;;;;14.46;79.75;100841.80;106835;1274;72624;-73
2022/11/05 08:40:45;;;;;;;24.10;14.60;;;;;;;14.45;79.57;100846.27;106721;1273;71101;-74
2022/11/05 08:43:14;;;;;;;25.00;13.70;;;;;;;14.55;79.09;100847.16;106737;1266;63682;-75
2022/11/05 08:45:44;;;;;;;27.60;14.90;;;;;;;14.54;78.96;100844.83;106863;1271;63014;-78
2022/11/05 08:48:16;;;;;;;27.20;14.20;;;;;;;14.56;78.89;100844.45;106970;1273;58129;-73
2022/11/05 08:50:47;;;;;;;24.10;14.80;;;;;;;14.64;78.46;100841.13;106787;1280;74316;-72
2022/11/05 08:53:16;;;;;;;22.30;13.20;;;;;;;14.63;78.41;100841.06;106921;1276;61108;-74
2022/11/05 08:55:46;;;;;;;27.70;14.40;;;;;;;14.54;78.44;100834.34;107001;1276;60022;-76
2022/11/05 08:58:16;;;;;;;22.10;13.40;;;;;;;14.58;78.51;100839.42;107009;1272;63241;-74
2022/11/05 09:00:48;;;;;;;22.90;12.90;;;;;;;14.67;78.27;100835.45;106818;1275;61914;-75
2022/11/05 09:03:17;;;;;;;23.10;13.30;;;;;;;14.75;77.67;100839.13;107001;1282;61032;-74
2022/11/05 09:05:46;;;;;;;21.40;13.30;;;;;;;14.59;77.72;100841.08;106932;1271;63654;-74
2022/11/05 09:08:18;;;;;;;21.60;12.20;;;;;;;14.71;77.42;100843.19;107083;1271;71470;-75
2022/11/05 09:10:48;;;;;;;20.20;11.70;;;;;;;14.86;76.95;100841.65;107020;1277;70493;-75
2022/11/05 09:13:17;;;;;;;23.70;13.00;;;;;;;14.86;76.45;100844.87;106937;1275;63610;-74
2022/11/05 09:15:49;;;;;;;25.30;15.60;;;;;;;14.82;76.82;100851.16;107102;1275;62092;-74
2022/11/05 09:18:19;;;;;;;21.80;12.60;;;;;;;14.77;76.50;100860.86;107006;1274;57681;-73
2022/11/05 09:20:47;;;;;;;20.20;11.60;;;;;;;14.66;76.89;100866.39;107043;1273;72567;-74
2022/11/05 09:23:16;;;;;;;24.10;12.40;;;;;;;14.67;76.71;100867.53;107211;1268;62400;-74
2022/11/05 09:25:45;;;;;;;21.70;12.10;;;;;;;14.72;76.31;100864.30;106941;1276;59253;-72
2022/11/05 09:28:19;;;;;;;19.40;12.20;;;;;;;14.76;76.19;100863.02;107112;1279;63236;-76
2022/11/05 09:30:50;;;;;;;22.50;11.40;;;;;;;14.84;75.78;100861.30;107091;1281;62941;-74
2022/11/05 09:33:24;;;;;;;25.30;11.90;;;;;;;14.72;75.73;100852.86;107137;1275;57732;-74
2022/11/05 09:35:53;;;;;;;20.70;10.80;;;;;;;14.78;75.70;100862.34;107080;1277;73306;-75
2022/11/05 09:38:22;;;;;;;23.90;11.40;;;;;;;14.79;75.55;100863.14;107180;1273;71829;-74
2022/11/05 09:41:11;;;;;;;17.90;10.60;;;;;;;14.93;75.24;100866.50;106999;1269;60718;-75
2022/11/05 09:43:49;;;;;;;17.10;10.20;;;;;;;14.91;74.74;100861.42;107228;1270;64226;-74
2022/11/05 09:46:23;;;;;;;19.40;10.30;;;;;;;14.76;74.98;100857.81;106984;1282;57755;-74
2022/11/05 09:49:02;;;;;;;20.20;10.60;;;;;;;14.83;74.86;100860.36;106825;1281;58280;-75
2022/11/05 09:51:31;;;;;;;22.00;10.60;;;;;;;14.91;74.22;100863.48;107083;1282;72497;-76
2022/11/05 09:54:04;;;;;;;20.20;10.00;;;;;;;14.95;74.20;100862.26;107134;1282;72773;-76
2022/11/05 09:56:36;;;;;;;24.80;10.90;;;;;;;15.02;73.64;100861.06;107156;1275;62329;-78
2022/11/05 09:59:23;;;;;;;25.00;10.30;;;;;;;15.04;73.32;100862.68;107054;1276;73692;-76
2022/11/05 10:02:10;;;;;;;21.30;11.00;;;;;;;14.99;72.98;100868.03;107067;1274;59050;-75
2022/11/05 10:04:42;;;;;;;17.00;10.10;;;;;;;15.08;72.68;100863.88;107063;1272;60501;-75
2022/11/05 10:07:17;;;;;;;19.40;9.90;;;;;;;15.14;72.44;100871.30;106957;1275;74482;-74
2022/11/05 10:09:52;;;;;;;21.50;9.00;;;;;;;15.10;72.16;100871.65;107166;1269;71564;-75
2022/11/05 10:12:47;;;;;;;15.10;8.50;;;;;;;15.08;72.15;100869.69;107020;1279;60664;-73
2022/11/05 10:15:23;;;;;;;21.40;9.70;;;;;;;15.02;72.12;100871.83;107145;1271;65397;-75
2022/11/05 10:18:11;;;;;;;18.10;8.90;;;;;;;15.02;72.00;100872.36;107108;1275;58311;-72
2022/11/05 10:20:42;;;;;;;21.10;10.10;;;;;;;15.06;71.84;100876.05;107021;1279;59734;-73
2022/11/05 10:23:16;;;;;;;18.70;8.40;;;;;;;15.04;71.58;100881.77;107028;1276;64348;-74
2022/11/05 10:25:51;;;;;;;14.80;8.00;;;;;;;14.91;71.97;100883.80;107116;1273;72389;-74
2022/11/05 10:28:24;;;;;;;16.00;8.70;;;;;;;14.93;71.79;100886.44;106822;1280;60468;-74
2022/11/05 10:31:10;;;;;;;17.20;8.60;;;;;;;15.01;71.73;100882.61;107012;1285;62318;-73
2022/11/05 10:34:02;;;;;;;15.60;8.20;;;;;;;15.04;71.45;100883.02;107006;1282;57836;-75
2022/11/05 10:36:35;;;;;;;18.50;8.90;;;;;;;15.04;71.08;100887.73;107096;1275;60437;-74
2022/11/05 10:39:18;;;;;;;;;;;;;;;15.15;71.02;100886.45;107028;1276;74572;-76
2022/11/05 10:42:23;;;;;;;18.30;9.00;;;;;;;15.15;71.01;100886.61;107050;1273;71616;-75
2022/11/05 10:45:11;;;;;;;17.60;8.40;;;;;;;15.16;70.91;100887.05;107013;1275;60325;-74
2022/11/05 10:48:21;;;;;;;15.70;8.10;;;;;;;15.15;70.43;100886.45;107009;1282;64813;-75
2022/11/05 10:50:50;;;;;;;14.20;8.10;;;;;;;15.08;70.51;100886.94;106760;1279;57795;-74
2022/11/05 10:53:38;;;;;;;16.70;8.20;;;;;;;15.07;70.54;100888.73;107026;1277;61354;-75
2022/11/05 10:56:37;;;;;;;22.10;9.60;;;;;;;15.08;70.43;100884.41;106962;1275;63228;-74
2022/11/05 10:59:29;;;;;;;20.20;9.60;;;;;;;15.16;70.42;100888.25;107232;1276;72630;-73
2022/11/05 11:02:08;;;;;;;16.90;8.90;;;;;;;15.08;70.39;100888.63;106962;1285;70876;-73
2022/11/05 11:04:37;;;;;;;20.20;9.30;;;;;;;15.13;70.19;100888.72;106875;1274;62929;-74
2022/11/05 11:07:20;;;;;;;17.90;9.10;;;;;;;15.19;69.92;100886.42;107055;1275;60457;-74
2022/11/05 11:09:50;;;;;;;17.00;8.50;;;;;;;15.18;70.09;100885.02;106916;1271;57687;-76
2022/11/05 11:12:37;;;;;;;15.00;9.00;;;;;;;15.29;69.77;100882.77;106904;1276;72361;-75
2022/11/05 11:15:23;;;;;;;19.10;9.40;;;;;;;15.42;69.54;100886.00;107053;1268;60812;-75
2022/11/05 11:17:52;;;;;;;;;;;;;;;15.44;69.24;100885.79;107060;1276;60644;-76
2022/11/05 11:20:30;;;;;;;15.90;8.50;;;;;;;15.47;68.96;100888.17;106999;1277;64351;-75
2022/11/05 11:23:13;;;;;;;16.90;9.30;;;;;;;15.46;68.90;100890.02;107054;1276;58337;-74
2022/11/05 11:26:00;;;;;;;15.50;8.30;;;;;;;15.51;68.78;100893.88;107058;1269;59671;-74
2022/11/05 11:29:20;;;;;;;20.80;9.70;;;;;;;15.50;68.62;100888.96;107048;1279;63119;-73
2022/11/05 11:31:56;;;;;;;18.20;9.30;;;;;;;15.49;68.60;100892.71;107020;1277;72211;-74
2022/11/05 11:34:33;;;;;;;17.40;8.50;;;;;;;15.50;68.66;100897.33;106971;1274;59499;-75
2022/11/05 11:37:27;;;;;;;20.00;8.40;;;;;;;15.54;68.44;100896.98;106887;1274;72716;-76
2022/11/05 11:40:03;;;;;;;24.00;9.20;;;;;;;15.45;68.28;100896.95;106989;1273;59760;-83
2022/11/05 11:42:38;;;;;;;15.30;7.70;;;;;;;15.40;68.28;100895.23;106825;1278;61112;-74
2022/11/05 11:45:36;;;;;;;13.50;7.70;;;;;;;15.47;67.97;100896.05;106872;1276;73677;-74
2022/11/05 11:48:13;;;;;;;17.50;8.80;;;;;;;15.52;67.74;100897.54;107003;1277;60690;-74
2022/11/05 11:50:45;;;;;;;16.00;8.30;;;;;;;15.49;67.72;100898.27;106897;1273;69663;-76
2022/11/05 11:53:20;;;;;;;15.40;8.70;;;;;;;15.58;67.59;100901.38;106775;1278;62812;-75
2022/11/05 11:56:00;;;;;;;17.80;8.10;;;;;;;15.66;67.11;100902.29;106843;1268;60305;-75
2022/11/05 11:58:56;;;;;;;17.70;8.10;;;;;;;15.64;66.69;100900.70;106798;1276;58217;-75
2022/11/05 12:02:02;;;;;;;15.10;8.70;;;;;;;15.63;66.59;100900.37;106910;1273;64069;-76
2022/11/05 12:05:03;;;;;;;13.80;8.20;;;;;;;15.64;66.45;100899.81;107016;1267;60823;-75
2022/11/05 12:07:56;;;;;;;14.20;8.00;;;;;;;15.69;66.35;100900.07;106914;1271;69586;-75
2022/11/05 12:10:40;;;;;;;24.10;9.20;;;;;;;15.72;65.98;100900.13;106882;1275;73383;-74
2022/11/05 12:13:19;;;;;;;17.00;8.90;;;;;;;15.80;65.70;100903.27;106892;1273;58471;-74